sensor_id;sensor_type;location;lat;lon;timestamp;P1;durP1;ratioP1;P2;durP2;ratioP2
50733;SDS011;36701;51.798;19.474;2023-08-07T02:02:29;4.03;;;1.65;;
50733;SDS011;36701;51.798;19.474;2023-08-07T02:04:56;1.77;;;1.67;;
50733;SDS011;36701;51.798;19.474;2023-08-07T02:07:21;2.90;;;1.70;;
50733;SDS011;36701;51.798;19.474;2023-08-07T02:09:48;1.70;;;1.50;;
50733;SDS011;36701;51.798;19.474;2023-08-07T02:12:14;1.77;;;1.67;;
50733;SDS011;36701;51.798;19.474;2023-08-07T02:14:40;2.87;;;2.05;;
50733;SDS011;36701;51.798;19.474;2023-08-07T02:17:06;3.92;;;2.53;;
50733;SDS011;36701;51.798;19.474;2023-08-07T02:19:32;1.98;;;1.70;;
50733;SDS011;36701;51.798;19.474;2023-08-07T02:21:58;2.70;;;1.73;;
50733;SDS011;36701;51.798;19.474;2023-08-07T02:24:24;10.50;;;1.85;;
50733;SDS011;36701;51.798;19.474;2023-08-07T02:26:51;2.28;;;1.98;;
50733;SDS011;36701;51.798;19.474;2023-08-07T02:29:18;1.80;;;1.80;;
50733;SDS011;36701;51.798;19.474;2023-08-07T02:31:44;4.62;;;1.73;;
50733;SDS011;36701;51.798;19.474;2023-08-07T02:34:11;3.95;;;1.77;;
50733;SDS011;36701;51.798;19.474;2023-08-07T02:36:37;2.03;;;1.92;;
50733;SDS011;36701;51.798;19.474;2023-08-07T02:39:03;2.33;;;2.22;;
50733;SDS011;36701;51.798;19.474;2023-08-07T02:41:30;2.47;;;1.98;;
50733;SDS011;36701;51.798;19.474;2023-08-07T02:43:57;3.92;;;1.75;;
50733;SDS011;36701;51.798;19.474;2023-08-07T02:46:23;1.95;;;1.85;;
50733;SDS011;36701;51.798;19.474;2023-08-07T02:48:49;1.50;;;1.40;;
50733;SDS011;36701;51.798;19.474;2023-08-07T02:51:15;1.98;;;1.67;;
50733;SDS011;36701;51.798;19.474;2023-08-07T02:53:42;2.25;;;2.15;;
50733;SDS011;36701;51.798;19.474;2023-08-07T02:56:08;1.87;;;1.80;;
50733;SDS011;36701;51.798;19.474;2023-08-07T02:58:34;1.52;;;1.42;;
50733;SDS011;36701;51.798;19.474;2023-08-07T03:01:08;2.20;;;2.00;;
50733;SDS011;36701;51.798;19.474;2023-08-07T03:03:35;3.53;;;1.73;;
50733;SDS011;36701;51.798;19.474;2023-08-07T03:06:01;5.87;;;1.87;;
50733;SDS011;36701;51.798;19.474;2023-08-07T03:08:27;2.45;;;1.70;;
50733;SDS011;36701;51.798;19.474;2023-08-07T03:10:54;2.00;;;1.90;;
50733;SDS011;36701;51.798;19.474;2023-08-07T03:13:26;2.33;;;2.17;;
50733;SDS011;36701;51.798;19.474;2023-08-07T03:16:01;2.20;;;2.00;;
50733;SDS011;36701;51.798;19.474;2023-08-07T03:18:28;2.60;;;2.47;;
50733;SDS011;36701;51.798;19.474;2023-08-07T03:20:54;1.83;;;1.73;;
50733;SDS011;36701;51.798;19.474;2023-08-07T03:23:21;3.83;;;2.15;;
50733;SDS011;36701;51.798;19.474;2023-08-07T03:25:48;2.10;;;2.00;;
50733;SDS011;36701;51.798;19.474;2023-08-07T03:28:14;2.62;;;2.42;;
50733;SDS011;36701;51.798;19.474;2023-08-07T03:30:40;2.20;;;2.00;;
50733;SDS011;36701;51.798;19.474;2023-08-07T03:33:08;2.30;;;2.10;;
50733;SDS011;36701;51.798;19.474;2023-08-07T03:35:35;2.00;;;1.90;;
50733;SDS011;36701;51.798;19.474;2023-08-07T03:38:01;2.03;;;1.92;;
50733;SDS011;36701;51.798;19.474;2023-08-07T03:40:27;1.90;;;1.80;;
50733;SDS011;36701;51.798;19.474;2023-08-07T03:42:54;3.42;;;2.33;;
50733;SDS011;36701;51.798;19.474;2023-08-07T03:45:21;2.25;;;2.15;;
50733;SDS011;36701;51.798;19.474;2023-08-07T03:47:47;3.37;;;1.98;;
50733;SDS011;36701;51.798;19.474;2023-08-07T03:50:14;3.10;;;2.12;;
50733;SDS011;36701;51.798;19.474;2023-08-07T03:52:40;3.08;;;1.77;;
50733;SDS011;36701;51.798;19.474;2023-08-07T03:55:06;4.25;;;2.03;;
50733;SDS011;36701;51.798;19.474;2023-08-07T03:57:32;1.92;;;1.75;;
50733;SDS011;36701;51.798;19.474;2023-08-07T03:59:59;3.60;;;2.22;;
50733;SDS011;36701;51.798;19.474;2023-08-07T04:02:28;2.25;;;2.05;;
50733;SDS011;36701;51.798;19.474;2023-08-07T04:04:55;10.57;;;2.17;;
50733;SDS011;36701;51.798;19.474;2023-08-07T04:07:21;2.30;;;2.20;;
50733;SDS011;36701;51.798;19.474;2023-08-07T04:09:48;2.78;;;2.55;;
50733;SDS011;36701;51.798;19.474;2023-08-07T04:12:14;2.00;;;1.90;;
50733;SDS011;36701;51.798;19.474;2023-08-07T04:14:40;2.25;;;2.15;;
50733;SDS011;36701;51.798;19.474;2023-08-07T04:17:06;2.45;;;2.15;;
50733;SDS011;36701;51.798;19.474;2023-08-07T04:19:33;3.72;;;2.30;;
50733;SDS011;36701;51.798;19.474;2023-08-07T04:21:59;3.72;;;2.40;;
50733;SDS011;36701;51.798;19.474;2023-08-07T04:24:25;2.30;;;2.17;;
50733;SDS011;36701;51.798;19.474;2023-08-07T04:26:51;3.30;;;2.35;;
50733;SDS011;36701;51.798;19.474;2023-08-07T04:29:19;3.05;;;2.85;;
50733;SDS011;36701;51.798;19.474;2023-08-07T04:31:45;3.03;;;2.28;;
50733;SDS011;36701;51.798;19.474;2023-08-07T04:34:11;3.55;;;2.30;;
50733;SDS011;36701;51.798;19.474;2023-08-07T04:36:38;3.67;;;2.53;;
50733;SDS011;36701;51.798;19.474;2023-08-07T04:39:04;2.65;;;2.45;;
50733;SDS011;36701;51.798;19.474;2023-08-07T04:41:31;2.80;;;2.50;;
50733;SDS011;36701;51.798;19.474;2023-08-07T04:43:57;4.87;;;2.45;;
50733;SDS011;36701;51.798;19.474;2023-08-07T04:46:23;2.75;;;2.42;;
50733;SDS011;36701;51.798;19.474;2023-08-07T04:48:49;4.55;;;2.10;;
50733;SDS011;36701;51.798;19.474;2023-08-07T04:51:15;5.68;;;2.08;;
50733;SDS011;36701;51.798;19.474;2023-08-07T04:53:41;5.55;;;2.55;;
50733;SDS011;36701;51.798;19.474;2023-08-07T04:56:08;2.78;;;2.55;;
50733;SDS011;36701;51.798;19.474;2023-08-07T04:58:33;1.95;;;1.85;;
50733;SDS011;36701;51.798;19.474;2023-08-07T05:01:00;4.75;;;2.72;;
50733;SDS011;36701;51.798;19.474;2023-08-07T05:03:26;3.08;;;2.40;;
50733;SDS011;36701;51.798;19.474;2023-08-07T05:05:59;2.80;;;2.60;;
50733;SDS011;36701;51.798;19.474;2023-08-07T05:08:25;6.28;;;3.08;;
50733;SDS011;36701;51.798;19.474;2023-08-07T05:10:52;2.58;;;2.37;;
50733;SDS011;36701;51.798;19.474;2023-08-07T05:13:18;5.85;;;2.28;;
50733;SDS011;36701;51.798;19.474;2023-08-07T05:15:46;2.83;;;2.62;;
50733;SDS011;36701;51.798;19.474;2023-08-07T05:18:13;2.80;;;2.60;;
50733;SDS011;36701;51.798;19.474;2023-08-07T05:20:39;2.85;;;2.40;;
50733;SDS011;36701;51.798;19.474;2023-08-07T05:23:05;2.80;;;2.60;;
50733;SDS011;36701;51.798;19.474;2023-08-07T05:25:31;3.85;;;2.72;;
50733;SDS011;36701;51.798;19.474;2023-08-07T05:27:58;2.58;;;2.33;;
50733;SDS011;36701;51.798;19.474;2023-08-07T05:30:24;4.22;;;2.50;;
50733;SDS011;36701;51.798;19.474;2023-08-07T05:32:50;2.50;;;2.30;;
50733;SDS011;36701;51.798;19.474;2023-08-07T05:35:16;3.12;;;2.72;;
50733;SDS011;36701;51.798;19.474;2023-08-07T05:37:42;6.32;;;2.67;;
50733;SDS011;36701;51.798;19.474;2023-08-07T05:40:09;4.95;;;2.00;;
50733;SDS011;36701;51.798;19.474;2023-08-07T05:42:37;2.47;;;2.28;;
50733;SDS011;36701;51.798;19.474;2023-08-07T05:45:04;2.22;;;2.05;;
50733;SDS011;36701;51.798;19.474;2023-08-07T05:47:31;1.95;;;1.85;;
50733;SDS011;36701;51.798;19.474;2023-08-07T05:49:58;3.62;;;2.35;;
50733;SDS011;36701;51.798;19.474;2023-08-07T05:52:24;3.03;;;2.30;;
50733;SDS011;36701;51.798;19.474;2023-08-07T05:54:50;2.10;;;1.92;;
50733;SDS011;36701;51.798;19.474;2023-08-07T05:57:17;2.37;;;2.03;;
50733;SDS011;36701;51.798;19.474;2023-08-07T05:59:43;5.28;;;1.80;;
50733;SDS011;36701;51.798;19.474;2023-08-07T06:02:09;1.90;;;1.80;;
50733;SDS011;36701;51.798;19.474;2023-08-07T06:04:39;1.90;;;1.70;;
50733;SDS011;36701;51.798;19.474;2023-08-07T06:07:06;5.00;;;2.05;;
50733;SDS011;36701;51.798;19.474;2023-08-07T06:09:33;2.62;;;1.95;;
50733;SDS011;36701;51.798;19.474;2023-08-07T06:11:59;4.50;;;1.77;;
50733;SDS011;36701;51.798;19.474;2023-08-07T06:14:25;1.50;;;1.48;;
50733;SDS011;36701;51.798;19.474;2023-08-07T06:16:51;3.17;;;1.37;;
50733;SDS011;36701;51.798;19.474;2023-08-07T06:19:18;1.85;;;1.70;;
50733;SDS011;36701;51.798;19.474;2023-08-07T06:21:45;1.52;;;1.48;;
50733;SDS011;36701;51.798;19.474;2023-08-07T06:24:12;3.90;;;2.00;;
50733;SDS011;36701;51.798;19.474;2023-08-07T06:26:38;10.68;;;1.70;;
50733;SDS011;36701;51.798;19.474;2023-08-07T06:29:04;1.50;;;1.40;;
50733;SDS011;36701;51.798;19.474;2023-08-07T06:31:30;1.62;;;1.50;;
50733;SDS011;36701;51.798;19.474;2023-08-07T06:33:56;1.42;;;1.40;;
50733;SDS011;36701;51.798;19.474;2023-08-07T06:36:25;1.77;;;1.50;;
50733;SDS011;36701;51.798;19.474;2023-08-07T06:38:52;2.62;;;1.90;;
50733;SDS011;36701;51.798;19.474;2023-08-07T06:41:18;1.62;;;1.40;;
50733;SDS011;36701;51.798;19.474;2023-08-07T06:43:44;4.00;;;1.40;;
50733;SDS011;36701;51.798;19.474;2023-08-07T06:46:10;1.30;;;1.20;;
50733;SDS011;36701;51.798;19.474;2023-08-07T06:48:37;1.08;;;0.98;;
50733;SDS011;36701;51.798;19.474;2023-08-07T06:51:03;1.25;;;1.15;;
50733;SDS011;36701;51.798;19.474;2023-08-07T06:53:30;1.37;;;1.27;;
50733;SDS011;36701;51.798;19.474;2023-08-07T06:55:56;1.92;;;1.40;;
50733;SDS011;36701;51.798;19.474;2023-08-07T06:58:22;1.05;;;1.05;;
50733;SDS011;36701;51.798;19.474;2023-08-07T07:00:48;2.78;;;1.30;;
50733;SDS011;36701;51.798;19.474;2023-08-07T07:03:15;1.58;;;1.20;;
50733;SDS011;36701;51.798;19.474;2023-08-07T07:05:41;1.35;;;1.25;;
50733;SDS011;36701;51.798;19.474;2023-08-07T07:08:15;4.53;;;1.50;;
50733;SDS011;36701;51.798;19.474;2023-08-07T07:10:41;1.20;;;1.00;;
50733;SDS011;36701;51.798;19.474;2023-08-07T07:13:07;1.62;;;1.20;;
50733;SDS011;36701;51.798;19.474;2023-08-07T07:15:35;1.10;;;1.10;;
50733;SDS011;36701;51.798;19.474;2023-08-07T07:18:02;1.02;;;1.02;;
50733;SDS011;36701;51.798;19.474;2023-08-07T07:20:28;2.42;;;1.33;;
50733;SDS011;36701;51.798;19.474;2023-08-07T07:22:55;1.25;;;1.25;;
50733;SDS011;36701;51.798;19.474;2023-08-07T07:25:21;1.60;;;1.20;;
50733;SDS011;36701;51.798;19.474;2023-08-07T07:27:47;1.33;;;1.10;;
50733;SDS011;36701;51.798;19.474;2023-08-07T07:30:13;1.73;;;1.27;;
50733;SDS011;36701;51.798;19.474;2023-08-07T07:32:40;1.05;;;1.00;;
50733;SDS011;36701;51.798;19.474;2023-08-07T07:35:06;3.45;;;0.98;;
50733;SDS011;36701;51.798;19.474;2023-08-07T07:37:32;5.93;;;1.00;;
50733;SDS011;36701;51.798;19.474;2023-08-07T07:39:58;3.20;;;1.08;;
50733;SDS011;36701;51.798;19.474;2023-08-07T07:42:31;2.45;;;1.08;;
50733;SDS011;36701;51.798;19.474;2023-08-07T07:44:56;1.10;;;1.00;;
50733;SDS011;36701;51.798;19.474;2023-08-07T07:47:23;1.08;;;1.08;;
50733;SDS011;36701;51.798;19.474;2023-08-07T07:49:49;1.05;;;1.00;;
50733;SDS011;36701;51.798;19.474;2023-08-07T07:52:29;12.73;;;1.02;;
50733;SDS011;36701;51.798;19.474;2023-08-07T07:54:55;2.95;;;1.05;;
50733;SDS011;36701;51.798;19.474;2023-08-07T07:57:22;0.90;;;0.90;;
50733;SDS011;36701;51.798;19.474;2023-08-07T07:59:48;1.00;;;1.00;;
50733;SDS011;36701;51.798;19.474;2023-08-07T08:02:14;3.37;;;0.93;;
50733;SDS011;36701;51.798;19.474;2023-08-07T08:04:42;1.10;;;1.10;;
50733;SDS011;36701;51.798;19.474;2023-08-07T08:07:08;0.90;;;0.90;;
50733;SDS011;36701;51.798;19.474;2023-08-07T08:09:34;3.42;;;1.12;;
50733;SDS011;36701;51.798;19.474;2023-08-07T08:12:00;1.25;;;1.02;;
50733;SDS011;36701;51.798;19.474;2023-08-07T08:14:26;5.85;;;0.80;;
50733;SDS011;36701;51.798;19.474;2023-08-07T08:16:52;6.20;;;0.98;;
50733;SDS011;36701;51.798;19.474;2023-08-07T08:19:19;5.87;;;1.45;;
50733;SDS011;36701;51.798;19.474;2023-08-07T08:21:45;1.80;;;0.98;;
50733;SDS011;36701;51.798;19.474;2023-08-07T08:24:11;0.98;;;0.93;;
50733;SDS011;36701;51.798;19.474;2023-08-07T08:26:37;0.95;;;0.95;;
50733;SDS011;36701;51.798;19.474;2023-08-07T08:29:05;2.85;;;1.27;;
50733;SDS011;36701;51.798;19.474;2023-08-07T08:31:31;0.93;;;0.93;;
50733;SDS011;36701;51.798;19.474;2023-08-07T08:33:57;3.62;;;1.00;;
50733;SDS011;36701;51.798;19.474;2023-08-07T08:36:24;1.08;;;1.08;;
50733;SDS011;36701;51.798;19.474;2023-08-07T08:38:50;0.93;;;0.93;;
50733;SDS011;36701;51.798;19.474;2023-08-07T08:41:17;1.05;;;1.05;;
50733;SDS011;36701;51.798;19.474;2023-08-07T08:43:45;1.05;;;1.05;;
50733;SDS011;36701;51.798;19.474;2023-08-07T08:46:13;0.93;;;0.85;;
50733;SDS011;36701;51.798;19.474;2023-08-07T08:48:40;4.85;;;0.93;;
50733;SDS011;36701;51.798;19.474;2023-08-07T08:51:06;1.00;;;1.00;;
50733;SDS011;36701;51.798;19.474;2023-08-07T08:53:34;5.03;;;1.17;;
50733;SDS011;36701;51.798;19.474;2023-08-07T08:56:01;1.17;;;0.93;;
50733;SDS011;36701;51.798;19.474;2023-08-07T08:58:27;1.30;;;1.30;;
50733;SDS011;36701;51.798;19.474;2023-08-07T09:00:54;1.10;;;1.10;;
50733;SDS011;36701;51.798;19.474;2023-08-07T09:03:20;1.52;;;1.17;;
50733;SDS011;36701;51.798;19.474;2023-08-07T09:05:47;1.27;;;1.10;;
50733;SDS011;36701;51.798;19.474;2023-08-07T09:08:13;1.30;;;1.00;;
50733;SDS011;36701;51.798;19.474;2023-08-07T09:10:39;1.08;;;1.00;;
50733;SDS011;36701;51.798;19.474;2023-08-07T09:13:09;1.42;;;1.23;;
50733;SDS011;36701;51.798;19.474;2023-08-07T09:15:37;1.65;;;1.08;;
50733;SDS011;36701;51.798;19.474;2023-08-07T09:18:05;1.10;;;1.10;;
50733;SDS011;36701;51.798;19.474;2023-08-07T09:20:33;4.12;;;1.40;;
50733;SDS011;36701;51.798;19.474;2023-08-07T09:23:00;1.08;;;1.08;;
50733;SDS011;36701;51.798;19.474;2023-08-07T09:25:28;1.48;;;1.08;;
50733;SDS011;36701;51.798;19.474;2023-08-07T09:27:54;0.90;;;0.90;;
50733;SDS011;36701;51.798;19.474;2023-08-07T09:30:21;3.50;;;1.30;;
50733;SDS011;36701;51.798;19.474;2023-08-07T09:32:47;1.12;;;1.08;;
50733;SDS011;36701;51.798;19.474;2023-08-07T09:35:13;1.23;;;1.20;;
50733;SDS011;36701;51.798;19.474;2023-08-07T09:37:39;2.92;;;1.42;;
50733;SDS011;36701;51.798;19.474;2023-08-07T09:40:09;1.52;;;1.30;;
50733;SDS011;36701;51.798;19.474;2023-08-07T09:42:38;5.70;;;1.02;;
50733;SDS011;36701;51.798;19.474;2023-08-07T09:45:12;0.90;;;0.90;;
50733;SDS011;36701;51.798;19.474;2023-08-07T09:47:44;1.27;;;1.00;;
50733;SDS011;36701;51.798;19.474;2023-08-07T09:50:15;1.83;;;1.35;;
50733;SDS011;36701;51.798;19.474;2023-08-07T09:52:41;1.00;;;1.00;;
50733;SDS011;36701;51.798;19.474;2023-08-07T09:55:08;1.15;;;1.12;;
50733;SDS011;36701;51.798;19.474;2023-08-07T09:57:34;5.37;;;1.33;;
50733;SDS011;36701;51.798;19.474;2023-08-07T10:00:00;1.02;;;1.00;;
50733;SDS011;36701;51.798;19.474;2023-08-07T10:02:28;1.62;;;1.52;;
50733;SDS011;36701;51.798;19.474;2023-08-07T10:04:55;4.18;;;2.22;;
50733;SDS011;36701;51.798;19.474;2023-08-07T10:07:21;1.67;;;1.08;;
50733;SDS011;36701;51.798;19.474;2023-08-07T10:09:48;1.20;;;1.20;;
50733;SDS011;36701;51.798;19.474;2023-08-07T10:12:14;1.12;;;0.90;;
50733;SDS011;36701;51.798;19.474;2023-08-07T10:14:42;2.03;;;1.15;;
50733;SDS011;36701;51.798;19.474;2023-08-07T10:17:08;2.30;;;1.55;;
50733;SDS011;36701;51.798;19.474;2023-08-07T10:19:35;2.67;;;1.35;;
50733;SDS011;36701;51.798;19.474;2023-08-07T10:22:01;1.85;;;1.20;;
50733;SDS011;36701;51.798;19.474;2023-08-07T10:24:28;4.12;;;1.70;;
50733;SDS011;36701;51.798;19.474;2023-08-07T10:26:55;7.20;;;1.85;;
50733;SDS011;36701;51.798;19.474;2023-08-07T10:29:22;2.25;;;1.55;;
50733;SDS011;36701;51.798;19.474;2023-08-07T10:31:50;2.53;;;1.23;;
50733;SDS011;36701;51.798;19.474;2023-08-07T10:34:17;1.15;;;1.15;;
50733;SDS011;36701;51.798;19.474;2023-08-07T10:36:43;4.35;;;1.42;;
50733;SDS011;36701;51.798;19.474;2023-08-07T10:39:16;3.10;;;1.10;;
50733;SDS011;36701;51.798;19.474;2023-08-07T10:41:45;1.23;;;0.90;;
50733;SDS011;36701;51.798;19.474;2023-08-07T10:46:52;1.35;;;1.30;;
50733;SDS011;36701;51.798;19.474;2023-08-07T10:49:35;1.23;;;1.20;;
50733;SDS011;36701;51.798;19.474;2023-08-07T10:52:07;1.35;;;1.25;;
50733;SDS011;36701;51.798;19.474;2023-08-07T10:54:38;2.00;;;1.00;;
50733;SDS011;36701;51.798;19.474;2023-08-07T10:57:12;1.15;;;1.08;;
50733;SDS011;36701;51.798;19.474;2023-08-07T11:02:26;0.95;;;0.95;;
50733;SDS011;36701;51.798;19.474;2023-08-07T11:04:52;1.85;;;0.85;;
50733;SDS011;36701;51.798;19.474;2023-08-07T11:07:28;0.98;;;0.93;;
50733;SDS011;36701;51.798;19.474;2023-08-07T11:09:55;2.92;;;1.25;;
50733;SDS011;36701;51.798;19.474;2023-08-07T11:12:28;1.20;;;1.20;;
50733;SDS011;36701;51.798;19.474;2023-08-07T11:14:56;1.20;;;1.17;;
50733;SDS011;36701;51.798;19.474;2023-08-07T11:17:26;5.40;;;1.25;;
50733;SDS011;36701;51.798;19.474;2023-08-07T11:19:52;2.00;;;1.30;;
50733;SDS011;36701;51.798;19.474;2023-08-07T11:22:19;1.08;;;1.00;;
50733;SDS011;36701;51.798;19.474;2023-08-07T11:24:48;1.23;;;1.12;;
50733;SDS011;36701;51.798;19.474;2023-08-07T11:27:14;2.75;;;1.95;;
50733;SDS011;36701;51.798;19.474;2023-08-07T11:29:40;1.70;;;1.00;;
50733;SDS011;36701;51.798;19.474;2023-08-07T11:32:08;5.43;;;1.15;;
50733;SDS011;36701;51.798;19.474;2023-08-07T11:34:34;1.30;;;1.20;;
50733;SDS011;36701;51.798;19.474;2023-08-07T11:37:00;1.23;;;1.10;;
50733;SDS011;36701;51.798;19.474;2023-08-07T11:39:27;1.65;;;1.00;;
50733;SDS011;36701;51.798;19.474;2023-08-07T11:41:53;9.80;;;2.87;;
50733;SDS011;36701;51.798;19.474;2023-08-07T11:44:19;5.25;;;1.40;;
50733;SDS011;36701;51.798;19.474;2023-08-07T11:46:46;1.45;;;1.00;;
50733;SDS011;36701;51.798;19.474;2023-08-07T11:49:12;1.92;;;1.23;;
50733;SDS011;36701;51.798;19.474;2023-08-07T11:51:38;1.25;;;1.25;;
50733;SDS011;36701;51.798;19.474;2023-08-07T11:54:05;2.95;;;1.30;;
50733;SDS011;36701;51.798;19.474;2023-08-07T11:56:31;1.45;;;1.20;;
50733;SDS011;36701;51.798;19.474;2023-08-07T11:58:57;1.23;;;1.20;;
50733;SDS011;36701;51.798;19.474;2023-08-07T12:01:24;1.60;;;1.50;;
50733;SDS011;36701;51.798;19.474;2023-08-07T12:06:34;1.33;;;1.20;;
50733;SDS011;36701;51.798;19.474;2023-08-07T12:09:02;0.90;;;0.90;;
50733;SDS011;36701;51.798;19.474;2023-08-07T12:11:28;1.42;;;1.27;;
50733;SDS011;36701;51.798;19.474;2023-08-07T12:13:55;4.87;;;1.50;;
50733;SDS011;36701;51.798;19.474;2023-08-07T12:16:21;2.28;;;1.48;;
50733;SDS011;36701;51.798;19.474;2023-08-07T12:18:48;1.70;;;1.23;;
50733;SDS011;36701;51.798;19.474;2023-08-07T12:21:15;5.53;;;1.73;;
50733;SDS011;36701;51.798;19.474;2023-08-07T12:23:43;1.60;;;1.50;;
50733;SDS011;36701;51.798;19.474;2023-08-07T12:26:09;5.32;;;1.58;;
50733;SDS011;36701;51.798;19.474;2023-08-07T12:28:35;3.30;;;1.15;;
50733;SDS011;36701;51.798;19.474;2023-08-07T12:31:09;1.40;;;1.37;;
50733;SDS011;36701;51.798;19.474;2023-08-07T12:33:35;3.22;;;1.40;;
50733;SDS011;36701;51.798;19.474;2023-08-07T12:36:01;1.70;;;1.60;;
50733;SDS011;36701;51.798;19.474;2023-08-07T12:38:28;3.50;;;1.60;;
50733;SDS011;36701;51.798;19.474;2023-08-07T12:40:55;5.55;;;1.98;;
50733;SDS011;36701;51.798;19.474;2023-08-07T12:43:20;4.15;;;1.62;;
50733;SDS011;36701;51.798;19.474;2023-08-07T12:45:47;5.05;;;1.25;;
50733;SDS011;36701;51.798;19.474;2023-08-07T12:48:13;2.08;;;1.30;;
50733;SDS011;36701;51.798;19.474;2023-08-07T12:50:39;1.33;;;1.23;;
50733;SDS011;36701;51.798;19.474;2023-08-07T12:53:06;5.30;;;1.75;;
50733;SDS011;36701;51.798;19.474;2023-08-07T12:55:32;1.40;;;1.30;;
50733;SDS011;36701;51.798;19.474;2023-08-07T12:57:58;3.72;;;1.83;;
50733;SDS011;36701;51.798;19.474;2023-08-07T13:00:24;9.52;;;1.30;;
50733;SDS011;36701;51.798;19.474;2023-08-07T13:02:51;2.42;;;1.37;;
50733;SDS011;36701;51.798;19.474;2023-08-07T13:05:18;2.60;;;1.27;;
50733;SDS011;36701;51.798;19.474;2023-08-07T13:07:48;6.72;;;1.58;;
50733;SDS011;36701;51.798;19.474;2023-08-07T13:10:15;3.55;;;1.30;;
50733;SDS011;36701;51.798;19.474;2023-08-07T13:12:42;3.45;;;1.40;;
50733;SDS011;36701;51.798;19.474;2023-08-07T13:15:09;2.83;;;1.48;;
50733;SDS011;36701;51.798;19.474;2023-08-07T13:17:38;1.52;;;1.42;;
50733;SDS011;36701;51.798;19.474;2023-08-07T13:20:05;1.50;;;1.40;;
50733;SDS011;36701;51.798;19.474;2023-08-07T13:22:34;2.05;;;1.00;;
50733;SDS011;36701;51.798;19.474;2023-08-07T13:25:00;3.05;;;1.50;;
50733;SDS011;36701;51.798;19.474;2023-08-07T13:27:29;3.83;;;1.15;;
50733;SDS011;36701;51.798;19.474;2023-08-07T13:29:56;1.08;;;1.08;;
50733;SDS011;36701;51.798;19.474;2023-08-07T13:32:21;1.30;;;1.20;;
50733;SDS011;36701;51.798;19.474;2023-08-07T13:34:48;12.65;;;2.10;;
50733;SDS011;36701;51.798;19.474;2023-08-07T13:37:14;3.17;;;1.25;;
50733;SDS011;36701;51.798;19.474;2023-08-07T13:39:41;2.50;;;1.80;;
50733;SDS011;36701;51.798;19.474;2023-08-07T13:42:07;2.53;;;1.42;;
50733;SDS011;36701;51.798;19.474;2023-08-07T13:44:33;1.20;;;0.82;;
50733;SDS011;36701;51.798;19.474;2023-08-07T13:47:06;1.62;;;1.50;;
50733;SDS011;36701;51.798;19.474;2023-08-07T13:49:33;1.23;;;1.08;;
50733;SDS011;36701;51.798;19.474;2023-08-07T13:52:00;1.40;;;1.27;;
50733;SDS011;36701;51.798;19.474;2023-08-07T13:54:26;0.98;;;0.98;;
50733;SDS011;36701;51.798;19.474;2023-08-07T13:56:52;1.20;;;1.10;;
50733;SDS011;36701;51.798;19.474;2023-08-07T13:59:19;1.87;;;1.12;;
50733;SDS011;36701;51.798;19.474;2023-08-07T14:01:45;2.50;;;1.15;;
50733;SDS011;36701;51.798;19.474;2023-08-07T14:04:11;4.10;;;0.90;;
50733;SDS011;36701;51.798;19.474;2023-08-07T14:06:39;1.12;;;1.12;;
50733;SDS011;36701;51.798;19.474;2023-08-07T14:09:07;1.73;;;1.62;;
50733;SDS011;36701;51.798;19.474;2023-08-07T14:11:35;5.55;;;1.58;;
50733;SDS011;36701;51.798;19.474;2023-08-07T14:14:01;3.33;;;1.45;;
50733;SDS011;36701;51.798;19.474;2023-08-07T14:16:27;2.28;;;1.08;;
50733;SDS011;36701;51.798;19.474;2023-08-07T14:18:54;9.93;;;2.10;;
50733;SDS011;36701;51.798;19.474;2023-08-07T14:21:20;1.27;;;1.17;;
50733;SDS011;36701;51.798;19.474;2023-08-07T14:23:46;2.67;;;1.17;;
50733;SDS011;36701;51.798;19.474;2023-08-07T14:26:13;1.65;;;1.20;;
50733;SDS011;36701;51.798;19.474;2023-08-07T14:28:41;3.80;;;1.55;;
50733;SDS011;36701;51.798;19.474;2023-08-07T14:31:08;1.05;;;0.98;;
50733;SDS011;36701;51.798;19.474;2023-08-07T14:33:35;1.30;;;1.30;;
50733;SDS011;36701;51.798;19.474;2023-08-07T14:36:01;6.43;;;1.75;;
50733;SDS011;36701;51.798;19.474;2023-08-07T14:38:28;2.28;;;1.20;;
50733;SDS011;36701;51.798;19.474;2023-08-07T14:40:54;2.15;;;1.50;;
50733;SDS011;36701;51.798;19.474;2023-08-07T14:43:21;2.42;;;1.15;;
50733;SDS011;36701;51.798;19.474;2023-08-07T14:45:48;2.65;;;1.40;;
50733;SDS011;36701;51.798;19.474;2023-08-07T14:48:15;1.42;;;1.40;;
50733;SDS011;36701;51.798;19.474;2023-08-07T14:50:41;2.45;;;1.40;;
50733;SDS011;36701;51.798;19.474;2023-08-07T14:53:07;1.12;;;1.12;;
50733;SDS011;36701;51.798;19.474;2023-08-07T14:55:33;1.00;;;1.00;;
50733;SDS011;36701;51.798;19.474;2023-08-07T14:58:00;3.42;;;1.37;;
50733;SDS011;36701;51.798;19.474;2023-08-07T15:00:28;3.17;;;1.17;;
50733;SDS011;36701;51.798;19.474;2023-08-07T15:02:56;2.40;;;1.40;;
50733;SDS011;36701;51.798;19.474;2023-08-07T15:05:23;1.33;;;1.05;;
50733;SDS011;36701;51.798;19.474;2023-08-07T15:07:49;1.42;;;1.33;;
50733;SDS011;36701;51.798;19.474;2023-08-07T15:10:16;1.48;;;1.37;;
50733;SDS011;36701;51.798;19.474;2023-08-07T15:12:42;1.60;;;1.48;;
50733;SDS011;36701;51.798;19.474;2023-08-07T15:15:08;2.50;;;1.02;;
50733;SDS011;36701;51.798;19.474;2023-08-07T15:17:35;3.37;;;1.30;;
50733;SDS011;36701;51.798;19.474;2023-08-07T15:20:01;4.85;;;1.50;;
50733;SDS011;36701;51.798;19.474;2023-08-07T15:22:28;1.33;;;1.33;;
50733;SDS011;36701;51.798;19.474;2023-08-07T15:24:54;2.03;;;1.45;;
50733;SDS011;36701;51.798;19.474;2023-08-07T15:27:20;1.25;;;1.10;;
50733;SDS011;36701;51.798;19.474;2023-08-07T15:29:46;8.63;;;1.27;;
50733;SDS011;36701;51.798;19.474;2023-08-07T15:32:13;4.55;;;1.70;;
50733;SDS011;36701;51.798;19.474;2023-08-07T15:34:39;1.77;;;1.42;;
50733;SDS011;36701;51.798;19.474;2023-08-07T15:37:06;3.42;;;1.92;;
50733;SDS011;36701;51.798;19.474;2023-08-07T15:39:32;1.87;;;1.30;;
50733;SDS011;36701;51.798;19.474;2023-08-07T15:41:59;1.20;;;1.17;;
50733;SDS011;36701;51.798;19.474;2023-08-07T15:44:25;1.77;;;1.30;;
50733;SDS011;36701;51.798;19.474;2023-08-07T15:46:51;2.05;;;1.85;;
50733;SDS011;36701;51.798;19.474;2023-08-07T15:49:17;5.85;;;1.55;;
50733;SDS011;36701;51.798;19.474;2023-08-07T15:51:44;4.40;;;1.40;;
50733;SDS011;36701;51.798;19.474;2023-08-07T15:54:10;2.35;;;1.83;;
50733;SDS011;36701;51.798;19.474;2023-08-07T15:56:37;1.40;;;1.10;;
50733;SDS011;36701;51.798;19.474;2023-08-07T15:59:03;2.58;;;1.50;;
50733;SDS011;36701;51.798;19.474;2023-08-07T16:01:29;7.68;;;2.15;;
50733;SDS011;36701;51.798;19.474;2023-08-07T16:03:56;1.98;;;1.80;;
50733;SDS011;36701;51.798;19.474;2023-08-07T16:06:25;6.55;;;1.62;;
50733;SDS011;36701;51.798;19.474;2023-08-07T16:08:51;1.55;;;1.45;;
50733;SDS011;36701;51.798;19.474;2023-08-07T16:11:20;1.40;;;1.30;;
50733;SDS011;36701;51.798;19.474;2023-08-07T16:13:46;6.12;;;1.67;;
50733;SDS011;36701;51.798;19.474;2023-08-07T16:16:13;11.60;;;1.62;;
50733;SDS011;36701;51.798;19.474;2023-08-07T16:18:39;1.17;;;1.17;;
50733;SDS011;36701;51.798;19.474;2023-08-07T16:21:14;1.23;;;1.10;;
50733;SDS011;36701;51.798;19.474;2023-08-07T16:23:41;4.05;;;1.30;;
50733;SDS011;36701;51.798;19.474;2023-08-07T16:26:07;1.55;;;1.45;;
50733;SDS011;36701;51.798;19.474;2023-08-07T16:28:33;1.52;;;1.42;;
50733;SDS011;36701;51.798;19.474;2023-08-07T16:31:00;1.60;;;1.30;;
50733;SDS011;36701;51.798;19.474;2023-08-07T16:33:25;0.98;;;0.98;;
50733;SDS011;36701;51.798;19.474;2023-08-07T16:35:52;7.03;;;1.50;;
50733;SDS011;36701;51.798;19.474;2023-08-07T16:38:20;1.40;;;1.25;;
50733;SDS011;36701;51.798;19.474;2023-08-07T16:40:46;1.10;;;1.10;;